Buffalo, Illinois
Current Conditions -  °F | °C
As of 6:52 AM on Saturday 22 Nov 2014 (Local Time) from KSPI Reporting Station
Overcast Overcast  
Wind Chill: 37°   Ceiling: 3000
Heat Index: 44°   Visibility: 10mi
Dew Point: 37°   Wind: 15mph
Humidity: 76%   Direction: 190°S
Pressure: 30.08"   Gusts: NA
Location:  39.85°N, 89.41°W
Report Text: KSPI 221252Z 19013KT 10SM BKN030 BKN037 OVC047 07/03 A3008 RMK AO2 SLP189 T00670028
Loading
Personal Weather Stations






























Interactive Weather Map New forecast layout! Learn more

10-Day Weather Forecast

Advertisements
Track Severe Weather on mobile